sensor_id;sensor_type;location;lat;lon;timestamp;P1;durP1;ratioP1;P2;durP2;ratioP2
9128;SDS011;4599;50.906;6.786;2023-09-30T00:01:37;10.83;;;4.23;;
9128;SDS011;4599;50.906;6.786;2023-09-30T00:05:40;20.37;;;4.80;;
9128;SDS011;4599;50.906;6.786;2023-09-30T00:09:42;8.60;;;4.10;;
9128;SDS011;4599;50.906;6.786;2023-09-30T00:13:43;9.10;;;4.27;;
9128;SDS011;4599;50.906;6.786;2023-09-30T00:17:45;9.97;;;4.53;;
9128;SDS011;4599;50.906;6.786;2023-09-30T00:21:48;12.03;;;4.33;;
9128;SDS011;4599;50.906;6.786;2023-09-30T00:25:50;15.33;;;4.43;;
9128;SDS011;4599;50.906;6.786;2023-09-30T00:29:53;11.93;;;4.60;;
9128;SDS011;4599;50.906;6.786;2023-09-30T00:33:55;12.03;;;4.97;;
9128;SDS011;4599;50.906;6.786;2023-09-30T00:37:58;10.03;;;4.40;;
9128;SDS011;4599;50.906;6.786;2023-09-30T00:42:02;12.30;;;4.37;;
9128;SDS011;4599;50.906;6.786;2023-09-30T00:46:04;14.00;;;4.83;;
9128;SDS011;4599;50.906;6.786;2023-09-30T00:50:11;9.20;;;4.50;;
9128;SDS011;4599;50.906;6.786;2023-09-30T00:54:15;10.80;;;4.77;;
9128;SDS011;4599;50.906;6.786;2023-09-30T00:58:19;11.50;;;4.47;;
9128;SDS011;4599;50.906;6.786;2023-09-30T01:02:21;9.80;;;4.67;;
9128;SDS011;4599;50.906;6.786;2023-09-30T01:06:23;13.73;;;4.90;;
9128;SDS011;4599;50.906;6.786;2023-09-30T01:10:27;14.43;;;4.53;;
9128;SDS011;4599;50.906;6.786;2023-09-30T01:14:30;11.83;;;4.57;;
9128;SDS011;4599;50.906;6.786;2023-09-30T01:18:32;11.57;;;4.47;;
9128;SDS011;4599;50.906;6.786;2023-09-30T01:22:36;9.23;;;4.20;;
9128;SDS011;4599;50.906;6.786;2023-09-30T01:26:38;8.87;;;4.40;;
9128;SDS011;4599;50.906;6.786;2023-09-30T01:30:39;11.47;;;4.33;;
9128;SDS011;4599;50.906;6.786;2023-09-30T01:34:41;10.47;;;4.70;;
9128;SDS011;4599;50.906;6.786;2023-09-30T01:38:44;11.73;;;4.57;;
9128;SDS011;4599;50.906;6.786;2023-09-30T01:42:46;8.73;;;4.43;;
9128;SDS011;4599;50.906;6.786;2023-09-30T01:46:48;7.93;;;4.27;;
9128;SDS011;4599;50.906;6.786;2023-09-30T01:50:49;7.33;;;4.10;;
9128;SDS011;4599;50.906;6.786;2023-09-30T01:54:52;9.67;;;4.40;;
9128;SDS011;4599;50.906;6.786;2023-09-30T01:58:54;10.17;;;4.70;;
9128;SDS011;4599;50.906;6.786;2023-09-30T02:02:56;9.90;;;4.97;;
9128;SDS011;4599;50.906;6.786;2023-09-30T02:06:59;12.50;;;4.73;;
9128;SDS011;4599;50.906;6.786;2023-09-30T02:11:03;15.17;;;5.60;;
9128;SDS011;4599;50.906;6.786;2023-09-30T02:15:04;10.43;;;4.80;;
9128;SDS011;4599;50.906;6.786;2023-09-30T02:19:09;16.37;;;5.17;;
9128;SDS011;4599;50.906;6.786;2023-09-30T02:23:10;13.30;;;5.63;;
9128;SDS011;4599;50.906;6.786;2023-09-30T02:27:14;11.23;;;4.90;;
9128;SDS011;4599;50.906;6.786;2023-09-30T02:31:15;7.90;;;4.83;;
9128;SDS011;4599;50.906;6.786;2023-09-30T02:35:17;13.43;;;5.93;;
9128;SDS011;4599;50.906;6.786;2023-09-30T02:39:18;10.50;;;5.57;;
9128;SDS011;4599;50.906;6.786;2023-09-30T02:43:22;12.30;;;5.77;;
9128;SDS011;4599;50.906;6.786;2023-09-30T02:47:24;13.70;;;5.80;;
9128;SDS011;4599;50.906;6.786;2023-09-30T02:51:28;13.87;;;6.10;;
9128;SDS011;4599;50.906;6.786;2023-09-30T02:55:31;14.50;;;6.10;;
9128;SDS011;4599;50.906;6.786;2023-09-30T02:59:34;17.90;;;6.17;;
9128;SDS011;4599;50.906;6.786;2023-09-30T03:03:36;11.43;;;5.87;;
9128;SDS011;4599;50.906;6.786;2023-09-30T03:07:37;12.03;;;6.20;;
9128;SDS011;4599;50.906;6.786;2023-09-30T03:11:39;13.83;;;6.70;;
9128;SDS011;4599;50.906;6.786;2023-09-30T03:15:45;13.60;;;6.10;;
9128;SDS011;4599;50.906;6.786;2023-09-30T03:19:47;9.03;;;5.83;;
9128;SDS011;4599;50.906;6.786;2023-09-30T03:23:49;13.23;;;5.70;;
9128;SDS011;4599;50.906;6.786;2023-09-30T03:27:50;12.00;;;5.97;;
9128;SDS011;4599;50.906;6.786;2023-09-30T03:31:53;12.13;;;5.93;;
9128;SDS011;4599;50.906;6.786;2023-09-30T03:35:55;12.50;;;5.87;;
9128;SDS011;4599;50.906;6.786;2023-09-30T03:39:57;10.83;;;6.07;;
9128;SDS011;4599;50.906;6.786;2023-09-30T03:43:59;13.90;;;5.67;;
9128;SDS011;4599;50.906;6.786;2023-09-30T03:48:04;11.53;;;5.80;;
9128;SDS011;4599;50.906;6.786;2023-09-30T03:52:06;12.43;;;5.73;;
9128;SDS011;4599;50.906;6.786;2023-09-30T03:56:07;14.43;;;5.80;;
9128;SDS011;4599;50.906;6.786;2023-09-30T04:00:09;10.20;;;5.60;;
9128;SDS011;4599;50.906;6.786;2023-09-30T04:04:13;13.73;;;5.73;;
9128;SDS011;4599;50.906;6.786;2023-09-30T04:08:15;15.10;;;6.13;;
9128;SDS011;4599;50.906;6.786;2023-09-30T04:12:16;8.90;;;5.47;;
9128;SDS011;4599;50.906;6.786;2023-09-30T04:16:18;9.40;;;5.83;;
9128;SDS011;4599;50.906;6.786;2023-09-30T04:20:21;10.67;;;5.93;;
9128;SDS011;4599;50.906;6.786;2023-09-30T04:24:23;9.57;;;5.53;;
9128;SDS011;4599;50.906;6.786;2023-09-30T04:28:24;15.07;;;6.03;;
9128;SDS011;4599;50.906;6.786;2023-09-30T04:32:26;10.37;;;6.00;;
9128;SDS011;4599;50.906;6.786;2023-09-30T04:36:29;9.43;;;5.90;;
9128;SDS011;4599;50.906;6.786;2023-09-30T04:40:31;11.07;;;6.07;;
9128;SDS011;4599;50.906;6.786;2023-09-30T04:44:32;10.90;;;6.07;;
9128;SDS011;4599;50.906;6.786;2023-09-30T04:48:34;16.13;;;6.77;;
9128;SDS011;4599;50.906;6.786;2023-09-30T04:52:40;11.80;;;6.17;;
9128;SDS011;4599;50.906;6.786;2023-09-30T04:56:42;10.10;;;6.50;;
9128;SDS011;4599;50.906;6.786;2023-09-30T05:00:45;11.20;;;6.23;;
9128;SDS011;4599;50.906;6.786;2023-09-30T05:04:47;15.83;;;6.80;;
9128;SDS011;4599;50.906;6.786;2023-09-30T05:08:50;11.70;;;6.60;;
9128;SDS011;4599;50.906;6.786;2023-09-30T05:12:52;12.23;;;6.93;;
9128;SDS011;4599;50.906;6.786;2023-09-30T05:16:53;12.03;;;6.77;;
9128;SDS011;4599;50.906;6.786;2023-09-30T05:20:55;13.10;;;6.27;;
9128;SDS011;4599;50.906;6.786;2023-09-30T05:24:58;13.27;;;7.23;;
9128;SDS011;4599;50.906;6.786;2023-09-30T05:28:59;16.53;;;6.87;;
9128;SDS011;4599;50.906;6.786;2023-09-30T05:33:01;14.50;;;7.03;;
9128;SDS011;4599;50.906;6.786;2023-09-30T05:37:03;9.83;;;6.80;;
9128;SDS011;4599;50.906;6.786;2023-09-30T05:41:07;10.13;;;7.07;;
9128;SDS011;4599;50.906;6.786;2023-09-30T05:45:09;11.47;;;7.73;;
9128;SDS011;4599;50.906;6.786;2023-09-30T05:49:11;13.67;;;7.50;;
9128;SDS011;4599;50.906;6.786;2023-09-30T05:53:13;11.90;;;7.67;;
9128;SDS011;4599;50.906;6.786;2023-09-30T05:57:16;11.33;;;7.60;;
9128;SDS011;4599;50.906;6.786;2023-09-30T06:01:18;13.43;;;7.80;;
9128;SDS011;4599;50.906;6.786;2023-09-30T06:05:20;11.03;;;6.97;;
9128;SDS011;4599;50.906;6.786;2023-09-30T06:09:21;12.30;;;7.60;;
9128;SDS011;4599;50.906;6.786;2023-09-30T06:13:24;14.40;;;8.07;;
9128;SDS011;4599;50.906;6.786;2023-09-30T06:17:26;11.67;;;7.60;;
9128;SDS011;4599;50.906;6.786;2023-09-30T06:21:27;12.13;;;7.70;;
9128;SDS011;4599;50.906;6.786;2023-09-30T06:25:29;10.97;;;7.67;;
9128;SDS011;4599;50.906;6.786;2023-09-30T06:29:32;12.17;;;7.07;;
9128;SDS011;4599;50.906;6.786;2023-09-30T06:33:34;14.13;;;9.17;;
9128;SDS011;4599;50.906;6.786;2023-09-30T06:37:36;15.27;;;9.23;;
9128;SDS011;4599;50.906;6.786;2023-09-30T06:41:38;12.40;;;8.63;;
9128;SDS011;4599;50.906;6.786;2023-09-30T06:45:41;12.53;;;8.90;;
9128;SDS011;4599;50.906;6.786;2023-09-30T06:49:43;12.03;;;8.53;;
9128;SDS011;4599;50.906;6.786;2023-09-30T06:53:46;15.57;;;8.90;;
9128;SDS011;4599;50.906;6.786;2023-09-30T06:57:47;15.17;;;9.43;;
9128;SDS011;4599;50.906;6.786;2023-09-30T07:01:51;11.93;;;8.80;;
9128;SDS011;4599;50.906;6.786;2023-09-30T07:05:52;14.60;;;10.70;;
9128;SDS011;4599;50.906;6.786;2023-09-30T07:09:54;12.37;;;10.77;;
9128;SDS011;4599;50.906;6.786;2023-09-30T07:13:56;13.00;;;9.50;;
9128;SDS011;4599;50.906;6.786;2023-09-30T07:17:59;11.47;;;8.60;;
9128;SDS011;4599;50.906;6.786;2023-09-30T07:22:00;8.23;;;7.37;;
9128;SDS011;4599;50.906;6.786;2023-09-30T07:26:05;9.47;;;7.10;;
9128;SDS011;4599;50.906;6.786;2023-09-30T07:30:07;9.43;;;7.80;;
9128;SDS011;4599;50.906;6.786;2023-09-30T07:34:11;10.80;;;6.80;;
9128;SDS011;4599;50.906;6.786;2023-09-30T07:38:13;8.73;;;6.53;;
9128;SDS011;4599;50.906;6.786;2023-09-30T07:42:14;6.67;;;5.97;;
9128;SDS011;4599;50.906;6.786;2023-09-30T07:46:16;6.77;;;6.03;;
9128;SDS011;4599;50.906;6.786;2023-09-30T07:50:19;7.43;;;6.27;;
9128;SDS011;4599;50.906;6.786;2023-09-30T07:54:21;6.50;;;5.83;;
9128;SDS011;4599;50.906;6.786;2023-09-30T07:58:32;7.57;;;6.50;;
9128;SDS011;4599;50.906;6.786;2023-09-30T08:02:33;8.93;;;6.17;;
9128;SDS011;4599;50.906;6.786;2023-09-30T08:06:36;8.87;;;6.80;;
9128;SDS011;4599;50.906;6.786;2023-09-30T08:10:38;8.60;;;6.57;;
9128;SDS011;4599;50.906;6.786;2023-09-30T08:14:40;7.50;;;6.77;;
9128;SDS011;4599;50.906;6.786;2023-09-30T08:18:41;8.40;;;6.97;;
9128;SDS011;4599;50.906;6.786;2023-09-30T08:22:46;10.27;;;6.67;;
9128;SDS011;4599;50.906;6.786;2023-09-30T08:26:48;7.23;;;6.23;;
9128;SDS011;4599;50.906;6.786;2023-09-30T08:30:49;7.60;;;6.80;;
9128;SDS011;4599;50.906;6.786;2023-09-30T08:34:51;10.60;;;6.70;;
9128;SDS011;4599;50.906;6.786;2023-09-30T08:38:54;7.57;;;6.60;;
9128;SDS011;4599;50.906;6.786;2023-09-30T08:42:56;7.97;;;6.90;;
9128;SDS011;4599;50.906;6.786;2023-09-30T08:46:58;9.43;;;6.70;;
9128;SDS011;4599;50.906;6.786;2023-09-30T08:51:00;8.67;;;6.83;;
9128;SDS011;4599;50.906;6.786;2023-09-30T08:55:05;9.40;;;6.73;;
9128;SDS011;4599;50.906;6.786;2023-09-30T08:59:08;8.47;;;5.80;;
9128;SDS011;4599;50.906;6.786;2023-09-30T09:03:12;8.50;;;6.00;;
9128;SDS011;4599;50.906;6.786;2023-09-30T09:07:14;7.53;;;5.07;;
9128;SDS011;4599;50.906;6.786;2023-09-30T09:11:18;7.17;;;4.97;;
9128;SDS011;4599;50.906;6.786;2023-09-30T09:15:21;7.77;;;5.40;;
9128;SDS011;4599;50.906;6.786;2023-09-30T09:19:24;8.27;;;5.80;;
9128;SDS011;4599;50.906;6.786;2023-09-30T09:23:26;6.67;;;5.20;;
9128;SDS011;4599;50.906;6.786;2023-09-30T09:27:29;8.70;;;5.67;;
9128;SDS011;4599;50.906;6.786;2023-09-30T09:31:35;5.10;;;4.53;;
9128;SDS011;4599;50.906;6.786;2023-09-30T09:35:39;8.90;;;4.73;;
9128;SDS011;4599;50.906;6.786;2023-09-30T09:39:48;6.17;;;4.10;;
9128;SDS011;4599;50.906;6.786;2023-09-30T09:43:54;6.23;;;4.13;;
9128;SDS011;4599;50.906;6.786;2023-09-30T09:48:00;6.27;;;4.00;;
9128;SDS011;4599;50.906;6.786;2023-09-30T09:52:02;5.93;;;3.60;;
9128;SDS011;4599;50.906;6.786;2023-09-30T09:56:05;4.67;;;3.67;;
9128;SDS011;4599;50.906;6.786;2023-09-30T10:00:12;6.67;;;3.67;;
9128;SDS011;4599;50.906;6.786;2023-09-30T10:04:16;4.70;;;3.03;;
9128;SDS011;4599;50.906;6.786;2023-09-30T10:08:18;7.50;;;3.20;;
9128;SDS011;4599;50.906;6.786;2023-09-30T10:12:22;7.77;;;3.20;;
9128;SDS011;4599;50.906;6.786;2023-09-30T10:20:49;5.37;;;3.20;;
9128;SDS011;4599;50.906;6.786;2023-09-30T10:24:51;4.93;;;2.70;;
9128;SDS011;4599;50.906;6.786;2023-09-30T10:28:54;5.03;;;2.72;;
9128;SDS011;4599;50.906;6.786;2023-09-30T10:33:10;3.70;;;2.60;;
9128;SDS011;4599;50.906;6.786;2023-09-30T10:37:19;4.35;;;2.60;;
9128;SDS011;4599;50.906;6.786;2023-09-30T10:45:55;8.20;;;2.95;;
9128;SDS011;4599;50.906;6.786;2023-09-30T10:49:58;6.68;;;2.90;;
9128;SDS011;4599;50.906;6.786;2023-09-30T10:54:00;9.57;;;3.42;;
9128;SDS011;4599;50.906;6.786;2023-09-30T10:58:02;4.78;;;2.40;;
9128;SDS011;4599;50.906;6.786;2023-09-30T11:02:05;4.88;;;3.10;;
9128;SDS011;4599;50.906;6.786;2023-09-30T11:06:21;5.93;;;2.78;;
9128;SDS011;4599;50.906;6.786;2023-09-30T11:10:23;5.40;;;2.90;;
9128;SDS011;4599;50.906;6.786;2023-09-30T11:14:26;10.25;;;3.03;;
9128;SDS011;4599;50.906;6.786;2023-09-30T11:18:31;5.88;;;3.05;;
9128;SDS011;4599;50.906;6.786;2023-09-30T11:22:34;8.10;;;3.10;;
9128;SDS011;4599;50.906;6.786;2023-09-30T11:26:37;5.10;;;2.65;;
9128;SDS011;4599;50.906;6.786;2023-09-30T11:30:52;7.63;;;2.80;;
9128;SDS011;4599;50.906;6.786;2023-09-30T11:34:55;4.38;;;2.15;;
9128;SDS011;4599;50.906;6.786;2023-09-30T11:38:58;4.05;;;2.45;;
9128;SDS011;4599;50.906;6.786;2023-09-30T11:43:07;5.93;;;2.63;;
9128;SDS011;4599;50.906;6.786;2023-09-30T11:47:08;5.72;;;2.63;;
9128;SDS011;4599;50.906;6.786;2023-09-30T11:51:10;6.60;;;2.30;;
9128;SDS011;4599;50.906;6.786;2023-09-30T11:55:12;5.15;;;2.58;;
9128;SDS011;4599;50.906;6.786;2023-09-30T11:59:14;5.72;;;2.65;;
9128;SDS011;4599;50.906;6.786;2023-09-30T12:03:16;4.40;;;2.70;;
9128;SDS011;4599;50.906;6.786;2023-09-30T12:07:17;6.75;;;2.60;;
9128;SDS011;4599;50.906;6.786;2023-09-30T12:11:21;7.90;;;2.83;;
9128;SDS011;4599;50.906;6.786;2023-09-30T12:15:24;7.78;;;2.90;;
9128;SDS011;4599;50.906;6.786;2023-09-30T12:19:25;6.43;;;2.85;;
9128;SDS011;4599;50.906;6.786;2023-09-30T12:23:27;4.85;;;2.47;;
9128;SDS011;4599;50.906;6.786;2023-09-30T12:27:30;7.72;;;2.80;;
9128;SDS011;4599;50.906;6.786;2023-09-30T12:31:32;5.70;;;2.60;;
9128;SDS011;4599;50.906;6.786;2023-09-30T12:35:50;5.55;;;2.90;;
9128;SDS011;4599;50.906;6.786;2023-09-30T12:39:52;4.93;;;2.65;;
9128;SDS011;4599;50.906;6.786;2023-09-30T12:43:56;5.68;;;2.70;;
9128;SDS011;4599;50.906;6.786;2023-09-30T12:47:57;5.70;;;2.75;;
9128;SDS011;4599;50.906;6.786;2023-09-30T12:51:59;8.52;;;3.28;;
9128;SDS011;4599;50.906;6.786;2023-09-30T12:56:01;3.78;;;2.53;;
9128;SDS011;4599;50.906;6.786;2023-09-30T13:00:04;6.68;;;3.10;;
9128;SDS011;4599;50.906;6.786;2023-09-30T13:04:07;4.95;;;2.58;;
9128;SDS011;4599;50.906;6.786;2023-09-30T13:08:10;5.93;;;2.57;;
9128;SDS011;4599;50.906;6.786;2023-09-30T13:12:11;4.23;;;2.50;;
9128;SDS011;4599;50.906;6.786;2023-09-30T13:16:15;7.07;;;2.60;;
9128;SDS011;4599;50.906;6.786;2023-09-30T13:20:16;6.07;;;2.57;;
9128;SDS011;4599;50.906;6.786;2023-09-30T13:24:18;6.20;;;2.50;;
9128;SDS011;4599;50.906;6.786;2023-09-30T13:28:20;5.27;;;2.50;;
9128;SDS011;4599;50.906;6.786;2023-09-30T13:32:23;5.20;;;2.60;;
9128;SDS011;4599;50.906;6.786;2023-09-30T13:36:24;13.83;;;4.60;;
9128;SDS011;4599;50.906;6.786;2023-09-30T13:40:26;6.10;;;2.67;;
9128;SDS011;4599;50.906;6.786;2023-09-30T13:44:28;7.73;;;2.60;;
9128;SDS011;4599;50.906;6.786;2023-09-30T13:48:31;6.93;;;3.13;;
9128;SDS011;4599;50.906;6.786;2023-09-30T13:52:33;6.53;;;2.60;;
9128;SDS011;4599;50.906;6.786;2023-09-30T13:56:35;8.77;;;2.70;;
9128;SDS011;4599;50.906;6.786;2023-09-30T14:00:37;8.57;;;2.60;;
9128;SDS011;4599;50.906;6.786;2023-09-30T14:04:40;5.50;;;2.70;;
9128;SDS011;4599;50.906;6.786;2023-09-30T14:08:42;5.40;;;2.30;;
9128;SDS011;4599;50.906;6.786;2023-09-30T14:12:44;6.03;;;2.70;;
9128;SDS011;4599;50.906;6.786;2023-09-30T14:16:45;6.70;;;2.77;;
9128;SDS011;4599;50.906;6.786;2023-09-30T14:20:49;5.63;;;2.33;;
9128;SDS011;4599;50.906;6.786;2023-09-30T14:24:50;4.30;;;2.30;;
9128;SDS011;4599;50.906;6.786;2023-09-30T14:28:52;4.73;;;2.60;;
9128;SDS011;4599;50.906;6.786;2023-09-30T14:32:54;6.53;;;2.20;;
9128;SDS011;4599;50.906;6.786;2023-09-30T14:36:57;4.53;;;2.40;;
9128;SDS011;4599;50.906;6.786;2023-09-30T14:40:58;6.17;;;2.50;;
9128;SDS011;4599;50.906;6.786;2023-09-30T14:45:00;5.83;;;2.80;;
9128;SDS011;4599;50.906;6.786;2023-09-30T14:49:02;6.10;;;2.37;;
9128;SDS011;4599;50.906;6.786;2023-09-30T14:53:05;4.60;;;2.50;;
9128;SDS011;4599;50.906;6.786;2023-09-30T14:57:07;6.47;;;2.37;;
9128;SDS011;4599;50.906;6.786;2023-09-30T15:01:09;4.80;;;2.17;;
9128;SDS011;4599;50.906;6.786;2023-09-30T15:05:10;5.43;;;2.77;;
9128;SDS011;4599;50.906;6.786;2023-09-30T15:09:13;4.83;;;2.37;;
9128;SDS011;4599;50.906;6.786;2023-09-30T15:13:15;3.20;;;2.40;;
9128;SDS011;4599;50.906;6.786;2023-09-30T15:17:16;5.00;;;2.23;;
9128;SDS011;4599;50.906;6.786;2023-09-30T15:21:18;4.50;;;2.50;;
9128;SDS011;4599;50.906;6.786;2023-09-30T15:25:21;5.60;;;2.53;;
9128;SDS011;4599;50.906;6.786;2023-09-30T15:29:22;4.57;;;2.40;;
9128;SDS011;4599;50.906;6.786;2023-09-30T15:33:24;6.03;;;2.70;;
9128;SDS011;4599;50.906;6.786;2023-09-30T15:37:26;4.97;;;2.40;;
9128;SDS011;4599;50.906;6.786;2023-09-30T15:41:29;6.77;;;2.70;;
9128;SDS011;4599;50.906;6.786;2023-09-30T15:45:30;6.53;;;2.97;;
9128;SDS011;4599;50.906;6.786;2023-09-30T15:49:32;5.03;;;2.60;;
9128;SDS011;4599;50.906;6.786;2023-09-30T15:53:33;5.30;;;2.43;;
9128;SDS011;4599;50.906;6.786;2023-09-30T15:57:36;3.90;;;2.37;;
9128;SDS011;4599;50.906;6.786;2023-09-30T16:01:38;5.10;;;2.73;;
9128;SDS011;4599;50.906;6.786;2023-09-30T16:05:40;4.80;;;2.40;;
9128;SDS011;4599;50.906;6.786;2023-09-30T16:09:41;5.23;;;2.47;;
9128;SDS011;4599;50.906;6.786;2023-09-30T16:13:44;4.47;;;2.30;;
9128;SDS011;4599;50.906;6.786;2023-09-30T16:17:46;4.63;;;2.23;;
9128;SDS011;4599;50.906;6.786;2023-09-30T16:21:47;4.57;;;2.43;;
9128;SDS011;4599;50.906;6.786;2023-09-30T16:25:49;5.07;;;2.80;;
9128;SDS011;4599;50.906;6.786;2023-09-30T16:29:53;4.97;;;2.33;;
9128;SDS011;4599;50.906;6.786;2023-09-30T16:33:54;5.40;;;2.50;;
9128;SDS011;4599;50.906;6.786;2023-09-30T16:37:56;4.10;;;2.23;;
9128;SDS011;4599;50.906;6.786;2023-09-30T16:41:58;3.93;;;2.13;;
9128;SDS011;4599;50.906;6.786;2023-09-30T16:46:02;4.47;;;2.30;;
9128;SDS011;4599;50.906;6.786;2023-09-30T16:50:04;5.93;;;2.53;;
9128;SDS011;4599;50.906;6.786;2023-09-30T16:54:06;5.87;;;2.70;;
9128;SDS011;4599;50.906;6.786;2023-09-30T16:58:08;8.50;;;2.57;;
9128;SDS011;4599;50.906;6.786;2023-09-30T17:02:11;4.97;;;2.50;;
9128;SDS011;4599;50.906;6.786;2023-09-30T17:06:13;5.37;;;2.33;;
9128;SDS011;4599;50.906;6.786;2023-09-30T17:10:14;7.77;;;2.60;;
9128;SDS011;4599;50.906;6.786;2023-09-30T17:14:16;4.20;;;2.43;;
9128;SDS011;4599;50.906;6.786;2023-09-30T17:18:19;5.00;;;2.27;;
9128;SDS011;4599;50.906;6.786;2023-09-30T17:22:21;4.87;;;2.50;;
9128;SDS011;4599;50.906;6.786;2023-09-30T17:26:22;7.50;;;2.87;;
9128;SDS011;4599;50.906;6.786;2023-09-30T17:30:24;4.83;;;2.57;;
9128;SDS011;4599;50.906;6.786;2023-09-30T17:34:42;5.23;;;2.43;;
9128;SDS011;4599;50.906;6.786;2023-09-30T17:38:44;4.70;;;2.43;;
9128;SDS011;4599;50.906;6.786;2023-09-30T17:42:46;6.50;;;2.80;;
9128;SDS011;4599;50.906;6.786;2023-09-30T17:46:48;4.43;;;2.67;;
9128;SDS011;4599;50.906;6.786;2023-09-30T17:50:51;5.33;;;2.63;;
9128;SDS011;4599;50.906;6.786;2023-09-30T17:54:53;7.77;;;3.30;;
9128;SDS011;4599;50.906;6.786;2023-09-30T17:58:54;5.07;;;2.70;;
9128;SDS011;4599;50.906;6.786;2023-09-30T18:02:56;5.77;;;3.00;;
9128;SDS011;4599;50.906;6.786;2023-09-30T18:06:59;6.13;;;3.60;;
9128;SDS011;4599;50.906;6.786;2023-09-30T18:11:01;7.03;;;3.77;;
9128;SDS011;4599;50.906;6.786;2023-09-30T18:15:03;5.60;;;3.47;;
9128;SDS011;4599;50.906;6.786;2023-09-30T18:19:05;7.17;;;3.73;;
9128;SDS011;4599;50.906;6.786;2023-09-30T18:23:08;6.17;;;3.43;;
9128;SDS011;4599;50.906;6.786;2023-09-30T18:27:09;6.93;;;3.93;;
9128;SDS011;4599;50.906;6.786;2023-09-30T18:31:16;8.23;;;4.53;;
9128;SDS011;4599;50.906;6.786;2023-09-30T18:35:21;9.27;;;4.27;;
9128;SDS011;4599;50.906;6.786;2023-09-30T18:39:24;6.53;;;4.00;;
9128;SDS011;4599;50.906;6.786;2023-09-30T18:43:27;6.93;;;3.73;;
9128;SDS011;4599;50.906;6.786;2023-09-30T18:47:28;7.83;;;3.83;;
9128;SDS011;4599;50.906;6.786;2023-09-30T18:51:30;5.53;;;3.50;;
9128;SDS011;4599;50.906;6.786;2023-09-30T18:55:35;8.00;;;3.70;;
9128;SDS011;4599;50.906;6.786;2023-09-30T18:59:37;6.67;;;3.73;;
9128;SDS011;4599;50.906;6.786;2023-09-30T19:03:39;5.97;;;3.57;;
9128;SDS011;4599;50.906;6.786;2023-09-30T19:07:41;7.53;;;4.23;;
9128;SDS011;4599;50.906;6.786;2023-09-30T19:11:43;7.57;;;3.90;;
9128;SDS011;4599;50.906;6.786;2023-09-30T19:15:45;7.80;;;3.50;;
9128;SDS011;4599;50.906;6.786;2023-09-30T19:19:48;8.40;;;4.33;;
9128;SDS011;4599;50.906;6.786;2023-09-30T19:23:49;9.20;;;4.90;;
9128;SDS011;4599;50.906;6.786;2023-09-30T19:27:52;9.30;;;4.87;;
9128;SDS011;4599;50.906;6.786;2023-09-30T19:31:54;7.37;;;4.73;;
9128;SDS011;4599;50.906;6.786;2023-09-30T19:35:55;8.97;;;5.07;;
9128;SDS011;4599;50.906;6.786;2023-09-30T19:39:57;8.43;;;4.40;;
9128;SDS011;4599;50.906;6.786;2023-09-30T19:44:00;13.70;;;8.07;;
9128;SDS011;4599;50.906;6.786;2023-09-30T19:48:02;10.17;;;5.63;;
9128;SDS011;4599;50.906;6.786;2023-09-30T19:52:04;9.67;;;4.93;;
9128;SDS011;4599;50.906;6.786;2023-09-30T19:56:06;6.53;;;4.83;;
9128;SDS011;4599;50.906;6.786;2023-09-30T20:00:10;7.30;;;4.83;;
9128;SDS011;4599;50.906;6.786;2023-09-30T20:04:12;11.63;;;5.10;;
9128;SDS011;4599;50.906;6.786;2023-09-30T20:08:14;7.60;;;4.50;;
9128;SDS011;4599;50.906;6.786;2023-09-30T20:12:15;7.37;;;5.20;;
9128;SDS011;4599;50.906;6.786;2023-09-30T20:16:19;9.63;;;5.57;;
9128;SDS011;4599;50.906;6.786;2023-09-30T20:20:21;10.63;;;5.67;;
9128;SDS011;4599;50.906;6.786;2023-09-30T20:24:24;8.40;;;5.00;;
9128;SDS011;4599;50.906;6.786;2023-09-30T20:28:25;9.03;;;4.97;;
9128;SDS011;4599;50.906;6.786;2023-09-30T20:32:29;10.07;;;5.97;;
9128;SDS011;4599;50.906;6.786;2023-09-30T20:36:30;9.90;;;5.80;;
9128;SDS011;4599;50.906;6.786;2023-09-30T20:40:32;8.40;;;5.97;;
9128;SDS011;4599;50.906;6.786;2023-09-30T20:44:34;8.37;;;5.77;;
9128;SDS011;4599;50.906;6.786;2023-09-30T20:48:37;10.33;;;5.30;;
9128;SDS011;4599;50.906;6.786;2023-09-30T20:52:39;6.97;;;5.53;;
9128;SDS011;4599;50.906;6.786;2023-09-30T20:56:41;9.77;;;5.40;;
9128;SDS011;4599;50.906;6.786;2023-09-30T21:00:42;9.13;;;5.53;;
9128;SDS011;4599;50.906;6.786;2023-09-30T21:04:46;7.37;;;5.43;;
9128;SDS011;4599;50.906;6.786;2023-09-30T21:08:47;8.63;;;6.17;;
9128;SDS011;4599;50.906;6.786;2023-09-30T21:12:49;11.80;;;7.17;;
9128;SDS011;4599;50.906;6.786;2023-09-30T21:16:51;10.03;;;7.50;;
9128;SDS011;4599;50.906;6.786;2023-09-30T21:20:54;14.07;;;8.63;;
9128;SDS011;4599;50.906;6.786;2023-09-30T21:24:56;11.80;;;9.00;;
9128;SDS011;4599;50.906;6.786;2023-09-30T21:28:57;15.33;;;9.03;;
9128;SDS011;4599;50.906;6.786;2023-09-30T21:33:00;17.37;;;10.37;;
9128;SDS011;4599;50.906;6.786;2023-09-30T21:37:07;14.30;;;9.60;;
9128;SDS011;4599;50.906;6.786;2023-09-30T21:41:11;17.93;;;9.60;;
9128;SDS011;4599;50.906;6.786;2023-09-30T21:45:14;13.63;;;8.17;;
9128;SDS011;4599;50.906;6.786;2023-09-30T21:49:16;11.10;;;7.07;;
9128;SDS011;4599;50.906;6.786;2023-09-30T21:53:19;9.47;;;6.97;;
9128;SDS011;4599;50.906;6.786;2023-09-30T21:57:21;10.63;;;6.30;;
9128;SDS011;4599;50.906;6.786;2023-09-30T22:01:22;10.30;;;6.00;;
9128;SDS011;4599;50.906;6.786;2023-09-30T22:05:24;11.07;;;6.07;;
9128;SDS011;4599;50.906;6.786;2023-09-30T22:09:28;11.30;;;5.80;;
9128;SDS011;4599;50.906;6.786;2023-09-30T22:13:30;8.87;;;5.40;;
9128;SDS011;4599;50.906;6.786;2023-09-30T22:17:31;11.57;;;6.13;;
9128;SDS011;4599;50.906;6.786;2023-09-30T22:21:33;8.50;;;5.97;;
9128;SDS011;4599;50.906;6.786;2023-09-30T22:25:36;9.20;;;6.13;;
9128;SDS011;4599;50.906;6.786;2023-09-30T22:29:37;9.37;;;5.83;;
9128;SDS011;4599;50.906;6.786;2023-09-30T22:33:39;9.57;;;5.90;;
9128;SDS011;4599;50.906;6.786;2023-09-30T22:37:41;10.53;;;5.90;;
9128;SDS011;4599;50.906;6.786;2023-09-30T22:41:44;9.83;;;5.77;;
9128;SDS011;4599;50.906;6.786;2023-09-30T22:45:46;9.60;;;6.03;;
9128;SDS011;4599;50.906;6.786;2023-09-30T22:49:48;10.23;;;5.17;;
9128;SDS011;4599;50.906;6.786;2023-09-30T22:53:50;7.47;;;5.00;;
9128;SDS011;4599;50.906;6.786;2023-09-30T22:57:54;6.87;;;4.90;;
9128;SDS011;4599;50.906;6.786;2023-09-30T23:01:55;9.40;;;4.90;;
9128;SDS011;4599;50.906;6.786;2023-09-30T23:05:57;7.90;;;4.67;;
9128;SDS011;4599;50.906;6.786;2023-09-30T23:09:59;7.37;;;5.00;;
9128;SDS011;4599;50.906;6.786;2023-09-30T23:14:02;10.07;;;4.63;;
9128;SDS011;4599;50.906;6.786;2023-09-30T23:18:04;8.60;;;4.83;;
9128;SDS011;4599;50.906;6.786;2023-09-30T23:22:05;7.53;;;4.43;;
9128;SDS011;4599;50.906;6.786;2023-09-30T23:26:08;9.33;;;4.57;;
9128;SDS011;4599;50.906;6.786;2023-09-30T23:30:11;8.50;;;4.97;;
9128;SDS011;4599;50.906;6.786;2023-09-30T23:34:13;7.13;;;4.63;;
9128;SDS011;4599;50.906;6.786;2023-09-30T23:38:15;8.50;;;4.20;;
9128;SDS011;4599;50.906;6.786;2023-09-30T23:42:17;8.73;;;4.37;;
9128;SDS011;4599;50.906;6.786;2023-09-30T23:46:20;9.30;;;4.53;;
9128;SDS011;4599;50.906;6.786;2023-09-30T23:50:22;6.30;;;4.20;;
9128;SDS011;4599;50.906;6.786;2023-09-30T23:54:24;6.17;;;4.30;;
9128;SDS011;4599;50.906;6.786;2023-09-30T23:58:25;12.00;;;4.27;;
